createdAt,value
2022-11-22T00:00:06.606Z,27.52
2022-11-22T00:02:13.151Z,28.08
2022-11-22T00:04:22.251Z,27.33
2022-11-22T00:06:28.970Z,29.73
2022-11-22T00:08:36.054Z,26.70
2022-11-22T00:10:42.771Z,29.50
2022-11-22T00:12:49.800Z,24.23
2022-11-22T00:14:57.127Z,25.70
2022-11-22T00:17:04.420Z,26.92
2022-11-22T00:19:12.062Z,28.38
2022-11-22T00:21:20.777Z,26.85
2022-11-22T00:23:27.655Z,27.27
2022-11-22T00:25:34.939Z,25.92
2022-11-22T00:27:41.608Z,28.38
2022-11-22T00:29:48.787Z,29.65
2022-11-22T00:31:55.476Z,29.92
2022-11-22T00:34:02.485Z,36.40
2022-11-22T00:36:09.292Z,32.47
2022-11-22T00:38:17.617Z,33.83
2022-11-22T00:40:24.337Z,34.92
2022-11-22T00:42:31.419Z,32.80
2022-11-22T00:44:38.342Z,35.10
2022-11-22T00:46:45.164Z,33.95
2022-11-22T00:48:52.143Z,37.92
2022-11-22T00:50:58.770Z,36.08
2022-11-22T00:53:05.789Z,31.92
2022-11-22T00:55:14.352Z,33.58
2022-11-22T00:57:21.432Z,37.67
2022-11-22T00:59:28.438Z,36.65
2022-11-22T01:01:35.689Z,35.85
2022-11-22T01:03:43.335Z,31.20
2022-11-22T01:05:52.462Z,31.35
2022-11-22T01:07:59.388Z,35.67
2022-11-22T01:10:06.223Z,38.38
2022-11-22T01:12:15.185Z,30.55
2022-11-22T01:14:22.110Z,30.98
2022-11-22T01:16:29.087Z,31.88
2022-11-22T01:18:36.375Z,32.67
2022-11-22T01:20:44.218Z,35.67
2022-11-22T01:22:50.836Z,37.67
2022-11-22T01:24:57.917Z,34.92
2022-11-22T01:27:04.841Z,29.42
2022-11-22T01:29:13.817Z,25.63
2022-11-22T01:31:20.539Z,26.83
2022-11-22T01:33:27.871Z,24.23
2022-11-22T01:35:34.591Z,26.75
2022-11-22T01:37:41.622Z,27.65
2022-11-22T01:39:48.392Z,25.10
2022-11-22T01:41:55.472Z,27.10
2022-11-22T01:44:20.112Z,24.13
2022-11-22T01:46:35.998Z,21.33
2022-11-22T01:48:52.139Z,24.38
2022-11-22T01:51:04.748Z,22.50
2022-11-22T01:53:15.974Z,23.35
2022-11-22T01:55:23.362Z,23.20
2022-11-22T01:57:34.487Z,20.88
2022-11-22T01:59:47.351Z,20.90
2022-11-22T02:01:57.039Z,20.45
2022-11-22T02:04:09.916Z,20.17
2022-11-22T02:06:17.444Z,19.33
2022-11-22T02:08:30.360Z,17.23
2022-11-22T02:10:43.226Z,17.52
2022-11-22T02:12:51.996Z,18.33
2022-11-22T02:14:59.177Z,18.02
2022-11-22T02:17:07.843Z,18.15
2022-11-22T02:19:18.864Z,18.48
2022-11-22T02:21:25.841Z,22.02
2022-11-22T02:23:42.601Z,18.33
2022-11-22T02:25:56.845Z,18.90
2022-11-22T02:28:03.616Z,18.80
2022-11-22T02:30:11.825Z,16.35
2022-11-22T02:32:18.594Z,18.98
2022-11-22T02:34:25.624Z,15.85
2022-11-22T02:36:36.389Z,22.63
2022-11-22T02:38:43.522Z,21.67
2022-11-22T02:40:56.234Z,19.02
2022-11-22T02:43:06.074Z,17.23
2022-11-22T02:45:13.460Z,19.85
2022-11-22T02:47:20.590Z,19.00
2022-11-22T02:49:28.663Z,19.45
2022-11-22T02:51:35.877Z,16.75
2022-11-22T02:53:42.649Z,15.20
2022-11-22T02:55:49.624Z,19.25
2022-11-22T02:57:57.933Z,17.48
2022-11-22T03:00:04.960Z,18.80
2022-11-22T03:02:11.633Z,17.48
2022-11-22T03:04:27.053Z,16.90
2022-11-22T03:06:34.085Z,17.67
2022-11-22T03:08:41.469Z,15.07
2022-11-22T03:10:48.191Z,14.90
2022-11-22T03:12:56.959Z,11.80
2022-11-22T03:15:03.637Z,16.45
2022-11-22T03:17:10.925Z,16.13
2022-11-22T03:19:17.992Z,15.23
2022-11-22T03:21:25.172Z,13.27
2022-11-22T03:23:33.381Z,12.52
2022-11-22T03:25:41.434Z,16.85
2022-11-22T03:27:48.152Z,15.73
2022-11-22T03:29:57.081Z,14.75
2022-11-22T03:32:03.949Z,14.38
2022-11-22T03:34:11.133Z,16.40
2022-11-22T03:36:17.851Z,14.70
2022-11-22T03:38:24.819Z,16.30
2022-11-22T03:40:31.549Z,13.93
2022-11-22T03:42:38.527Z,13.20
2022-11-22T03:44:45.247Z,14.68
2022-11-22T03:46:53.918Z,17.35
2022-11-22T03:49:01.197Z,17.80
2022-11-22T03:51:08.582Z,16.48
2022-11-22T03:53:15.611Z,18.95
2022-11-22T03:55:22.332Z,13.30
2022-11-22T03:57:29.109Z,18.58
2022-11-22T03:59:36.234Z,14.75
2022-11-22T04:01:43.374Z,12.52
2022-11-22T04:03:54.597Z,12.85
2022-11-22T04:06:01.622Z,13.73
2022-11-22T04:08:09.110Z,14.68
2022-11-22T04:10:19.317Z,14.77
2022-11-22T04:12:29.106Z,15.90
2022-11-22T04:14:52.160Z,13.77
2022-11-22T04:16:59.138Z,13.23
2022-11-22T04:19:07.646Z,12.32
2022-11-22T04:21:31.263Z,13.65
2022-11-22T04:23:38.036Z,14.07
2022-11-22T04:25:45.789Z,13.02
2022-11-22T04:27:52.552Z,14.50
2022-11-22T04:29:59.941Z,11.73
2022-11-22T04:32:23.505Z,13.27
2022-11-22T04:34:32.174Z,13.13
2022-11-22T04:36:38.896Z,10.02
2022-11-22T04:38:45.766Z,10.73
2022-11-22T04:40:52.538Z,12.07
2022-11-22T04:43:24.657Z,11.25
2022-11-22T04:45:31.682Z,10.90
2022-11-22T04:47:55.096Z,10.55
2022-11-22T04:50:03.765Z,11.38
2022-11-22T04:52:28.968Z,11.27
2022-11-22T04:54:35.789Z,10.23
2022-11-22T04:56:42.612Z,10.80
2022-11-22T04:58:52.352Z,9.75
2022-11-22T05:00:59.175Z,11.73
2022-11-22T05:03:05.439Z,10.52
2022-11-22T05:05:14.257Z,11.15
2022-11-22T05:07:21.581Z,11.52
2022-11-22T05:09:28.635Z,12.70
2022-11-22T05:11:36.522Z,14.10
2022-11-22T05:13:44.877Z,9.77
2022-11-22T05:15:52.368Z,15.50
2022-11-22T05:17:58.986Z,12.50
2022-11-22T05:20:05.962Z,11.07
2022-11-22T05:22:14.375Z,15.68
2022-11-22T05:24:20.172Z,12.52
2022-11-22T05:26:28.069Z,10.10
2022-11-22T05:28:36.224Z,9.90
2022-11-22T05:30:43.303Z,8.88
2022-11-22T05:32:50.181Z,11.02
2022-11-22T05:34:57.257Z,12.65
2022-11-22T05:37:04.849Z,8.73
2022-11-22T05:39:13.618Z,9.77
2022-11-22T05:41:20.901Z,9.55
2022-11-22T05:43:27.980Z,9.73
2022-11-22T05:45:34.755Z,8.98
2022-11-22T05:47:41.882Z,8.85
2022-11-22T05:49:48.859Z,10.23
2022-11-22T05:51:56.247Z,9.65
2022-11-22T05:54:03.078Z,9.65
2022-11-22T05:56:12.809Z,9.05
2022-11-22T05:58:19.540Z,9.25
2022-11-22T06:00:27.073Z,10.45
2022-11-22T06:02:35.313Z,8.80
2022-11-22T06:04:42.409Z,8.38
2022-11-22T06:06:51.210Z,10.23
2022-11-22T06:08:59.075Z,8.35
2022-11-22T06:11:11.325Z,10.05
2022-11-22T06:13:17.993Z,10.68
2022-11-22T06:15:25.227Z,9.57
2022-11-22T06:17:31.898Z,11.02
2022-11-22T06:19:38.822Z,8.70
2022-11-22T06:21:45.442Z,7.35
2022-11-22T06:23:52.526Z,9.73
2022-11-22T06:26:03.137Z,10.38
2022-11-22T06:28:12.002Z,10.05
2022-11-22T06:30:19.493Z,11.27
2022-11-22T06:32:26.624Z,8.65
2022-11-22T06:34:33.242Z,8.43
2022-11-22T06:36:41.907Z,9.55
2022-11-22T06:38:49.549Z,9.38
2022-11-22T06:40:56.733Z,9.98
2022-11-22T06:43:03.606Z,8.32
2022-11-22T06:45:13.570Z,9.25
2022-11-22T06:47:20.580Z,9.70
2022-11-22T06:49:27.726Z,8.57
2022-11-22T06:51:35.713Z,8.68
2022-11-22T06:53:48.219Z,8.00
2022-11-22T06:56:01.000Z,7.38
2022-11-22T06:58:08.418Z,7.78
2022-11-22T07:00:18.056Z,10.02
2022-11-22T07:02:25.033Z,9.85
2022-11-22T07:04:31.806Z,9.05
2022-11-22T07:06:41.036Z,8.07
2022-11-22T07:08:48.320Z,10.27
2022-11-22T07:10:55.666Z,9.05
2022-11-22T07:13:05.448Z,11.80
2022-11-22T07:15:13.450Z,8.73
2022-11-22T07:17:21.909Z,10.98
2022-11-22T07:19:29.236Z,7.70
2022-11-22T07:21:36.074Z,9.30
2022-11-22T07:23:43.925Z,8.93
2022-11-22T07:25:52.427Z,8.27
2022-11-22T07:27:59.660Z,9.23
2022-11-22T07:30:06.586Z,8.43
2022-11-22T07:32:13.513Z,9.63
2022-11-22T07:34:22.432Z,9.50
2022-11-22T07:36:31.305Z,10.73
2022-11-22T07:38:38.640Z,8.45
2022-11-22T07:40:45.364Z,8.18
2022-11-22T07:42:58.148Z,10.88
2022-11-22T07:45:05.356Z,10.25
2022-11-22T07:47:12.232Z,9.48
2022-11-22T07:49:20.744Z,7.85
2022-11-22T07:51:28.184Z,10.63
2022-11-22T07:53:35.133Z,9.15
2022-11-22T07:55:42.135Z,8.35
2022-11-22T07:57:49.623Z,9.20
2022-11-22T07:59:56.926Z,9.30
2022-11-22T08:02:03.938Z,9.32
2022-11-22T08:04:11.175Z,10.55
2022-11-22T08:06:19.782Z,8.93
2022-11-22T08:08:26.711Z,10.38
2022-11-22T08:10:34.351Z,10.10
2022-11-22T08:12:41.532Z,9.18
2022-11-22T08:14:48.274Z,10.30
2022-11-22T08:16:55.231Z,8.82
2022-11-22T08:19:01.900Z,11.02
2022-11-22T08:21:10.821Z,8.93
2022-11-22T08:23:19.181Z,10.23
2022-11-22T08:25:26.210Z,12.57
2022-11-22T08:27:32.981Z,12.10
2022-11-22T08:29:39.958Z,9.98
2022-11-22T08:31:47.242Z,10.50
2022-11-22T08:33:56.792Z,10.18
2022-11-22T08:36:03.919Z,12.68
2022-11-22T08:38:11.089Z,9.23
2022-11-22T08:40:19.860Z,9.63
2022-11-22T08:42:27.091Z,9.43
2022-11-22T08:44:33.763Z,8.93
2022-11-22T08:46:41.149Z,10.55
2022-11-22T08:48:47.971Z,10.52
2022-11-22T08:50:55.870Z,11.07
2022-11-22T08:53:04.484Z,11.73
2022-11-22T08:55:12.281Z,9.32
2022-11-22T08:57:20.741Z,9.75
2022-11-22T08:59:28.058Z,9.65
2022-11-22T09:01:35.561Z,10.18
2022-11-22T09:03:42.907Z,8.75
2022-11-22T09:08:24.271Z,8.40
2022-11-22T09:10:31.479Z,14.77
2022-11-22T09:12:39.941Z,12.68
2022-11-22T09:14:46.920Z,8.88
2022-11-22T09:16:53.691Z,9.50
2022-11-22T09:19:00.769Z,11.70
2022-11-22T09:21:09.384Z,11.25
2022-11-22T09:23:16.463Z,11.55
2022-11-22T09:25:23.439Z,11.45
2022-11-22T09:27:30.520Z,9.13
2022-11-22T09:29:38.932Z,10.82
2022-11-22T09:31:45.906Z,9.52
2022-11-22T09:33:53.037Z,11.40
2022-11-22T09:36:11.073Z,12.65
2022-11-22T09:38:18.255Z,9.88
2022-11-22T09:40:25.386Z,11.05
2022-11-22T09:42:52.893Z,9.32
2022-11-22T09:45:25.061Z,11.45
2022-11-22T09:49:50.027Z,9.90
2022-11-22T09:52:06.477Z,10.70
2022-11-22T09:54:16.418Z,12.55
2022-11-22T09:56:26.917Z,11.82
2022-11-22T09:58:36.514Z,11.70
2022-11-22T10:00:51.823Z,11.20
2022-11-22T10:03:06.903Z,10.68
2022-11-22T10:05:20.638Z,10.90
2022-11-22T10:07:32.841Z,12.15
2022-11-22T10:09:44.321Z,11.13
2022-11-22T10:11:57.339Z,10.27
2022-11-22T10:14:08.068Z,12.07
2022-11-22T10:16:21.072Z,11.45
2022-11-22T10:18:37.368Z,12.50
2022-11-22T10:20:48.806Z,12.50
2022-11-22T10:22:56.753Z,11.60
2022-11-22T10:25:05.774Z,13.50
2022-11-22T10:27:16.486Z,11.57
2022-11-22T10:29:34.429Z,12.45
2022-11-22T10:31:51.024Z,12.50
2022-11-22T10:34:06.202Z,14.52
2022-11-22T10:36:30.371Z,12.25
2022-11-22T10:38:52.403Z,13.55
2022-11-22T10:41:12.896Z,14.80
2022-11-22T10:43:36.819Z,13.40
2022-11-22T10:45:50.094Z,11.93
2022-11-22T10:48:08.794Z,14.38
2022-11-22T10:50:22.480Z,12.30
2022-11-22T10:52:40.159Z,12.30
2022-11-22T10:54:55.428Z,12.30
2022-11-22T10:57:08.886Z,16.67
2022-11-22T10:59:44.352Z,14.23
2022-11-22T11:02:00.750Z,14.32
2022-11-22T11:04:10.391Z,12.88
2022-11-22T11:06:33.012Z,16.67
2022-11-22T11:09:36.079Z,13.85
2022-11-22T11:11:17.092Z,15.85
2022-11-22T11:13:27.962Z,15.77
2022-11-22T11:15:39.084Z,15.70
2022-11-22T11:17:48.466Z,15.48
2022-11-22T11:20:00.768Z,16.35
2022-11-22T11:22:36.132Z,17.02
2022-11-22T11:24:46.828Z,17.90
2022-11-22T11:26:58.207Z,18.50
2022-11-22T11:29:38.028Z,20.80
2022-11-22T11:31:47.852Z,18.75
2022-11-22T11:33:54.771Z,23.55
2022-11-22T11:36:10.560Z,18.63
2022-11-22T11:38:35.912Z,19.80
2022-11-22T11:40:42.684Z,20.63
2022-11-22T11:42:49.558Z,17.92
2022-11-22T11:44:56.436Z,19.33
2022-11-22T11:47:03.996Z,17.55
2022-11-22T11:49:14.175Z,18.27
2022-11-22T11:51:40.198Z,19.80
2022-11-22T11:54:02.077Z,18.05
2022-11-22T11:56:35.366Z,18.83
2022-11-22T11:58:42.244Z,19.70
2022-11-22T12:00:49.989Z,19.17
2022-11-22T12:03:02.598Z,20.00
2022-11-22T12:05:27.595Z,21.10
2022-11-22T12:07:45.723Z,19.92
2022-11-22T12:09:54.708Z,19.08
2022-11-22T12:12:09.314Z,17.58
2022-11-22T12:14:20.507Z,17.65
2022-11-22T12:16:29.512Z,21.45
2022-11-22T12:18:46.116Z,22.77
2022-11-22T12:20:58.368Z,21.45
2022-11-22T12:23:21.165Z,24.35
2022-11-22T12:25:37.322Z,24.83
2022-11-22T12:27:44.692Z,24.35
2022-11-22T12:29:51.469Z,26.85
2022-11-22T12:32:03.356Z,25.73
2022-11-22T12:34:14.686Z,23.50
2022-11-22T12:38:42.821Z,25.02
2022-11-22T12:40:52.975Z,26.33
2022-11-22T12:43:03.899Z,28.48
2022-11-22T12:45:19.777Z,22.73
2022-11-22T12:47:31.364Z,21.83
2022-11-22T12:49:44.635Z,24.52
2022-11-22T12:51:57.040Z,23.95
2022-11-22T12:54:08.061Z,23.42
2022-11-22T12:56:29.779Z,23.42
2022-11-22T12:58:44.544Z,25.33
2022-11-22T13:01:08.818Z,24.65
2022-11-22T13:03:19.084Z,22.83
2022-11-22T13:05:29.743Z,22.85
2022-11-22T13:07:55.237Z,21.48
2022-11-22T13:10:10.197Z,21.15
2022-11-22T13:12:19.602Z,19.85
2022-11-22T13:14:31.307Z,23.02
2022-11-22T13:16:39.700Z,22.40
2022-11-22T13:18:51.283Z,21.48
2022-11-22T13:21:06.504Z,21.92
2022-11-22T13:23:31.196Z,23.48
2022-11-22T13:25:51.229Z,24.05
2022-11-22T13:28:01.859Z,20.05
2022-11-22T13:30:19.996Z,20.65
2022-11-22T13:32:30.284Z,21.15
2022-11-22T13:34:39.259Z,20.00
2022-11-22T13:36:46.491Z,21.63
2022-11-22T13:38:54.441Z,20.52
2022-11-22T13:41:30.140Z,22.15
2022-11-22T13:43:58.368Z,21.70
2022-11-22T13:46:06.570Z,21.05
2022-11-22T13:48:14.524Z,22.48
2022-11-22T13:51:00.360Z,19.83
2022-11-22T13:53:26.027Z,22.00
2022-11-22T13:55:43.649Z,20.90
2022-11-22T13:57:55.191Z,19.02
2022-11-22T14:00:49.235Z,21.63
2022-11-22T14:02:57.828Z,22.33
2022-11-22T14:05:04.702Z,23.90
2022-11-22T14:07:30.964Z,23.50
2022-11-22T14:09:41.849Z,23.27
2022-11-22T14:12:00.194Z,22.52
2022-11-22T14:14:17.718Z,21.27
2022-11-22T14:16:54.901Z,22.25
2022-11-22T14:19:14.270Z,21.20
2022-11-22T14:21:40.397Z,22.77
2022-11-22T14:24:00.846Z,21.58
2022-11-22T14:26:20.460Z,21.58
2022-11-22T14:28:48.173Z,22.17
2022-11-22T14:30:56.995Z,23.73
2022-11-22T14:33:06.785Z,23.30
2022-11-22T14:35:27.983Z,24.98
2022-11-22T14:37:50.031Z,23.00
2022-11-22T14:40:29.467Z,23.45
2022-11-22T14:43:00.814Z,23.08
2022-11-22T14:45:21.604Z,22.80
2022-11-22T14:47:32.690Z,23.75
2022-11-22T14:49:45.450Z,23.55
2022-11-22T14:51:56.884Z,20.40
2022-11-22T14:54:06.928Z,25.05
2022-11-22T14:56:20.049Z,22.50
2022-11-22T14:58:31.122Z,24.75
2022-11-22T15:00:53.152Z,23.65
2022-11-22T15:09:10.452Z,21.13
2022-11-22T15:09:14.559Z,29.33
2022-11-22T15:11:28.241Z,21.42
2022-11-22T15:13:57.131Z,24.30
2022-11-22T15:59:29.910Z,23.15
2022-11-22T16:01:43.229Z,25.52
2022-11-22T16:03:55.116Z,25.90
2022-11-22T16:06:12.293Z,22.70
2022-11-22T16:08:19.567Z,23.40
2022-11-22T16:10:28.743Z,22.40
2022-11-22T16:12:40.277Z,24.40
2022-11-22T16:14:52.735Z,23.77
2022-11-22T16:17:02.525Z,25.77
2022-11-22T16:19:24.609Z,22.30
2022-11-22T16:21:33.630Z,24.90
2022-11-22T16:23:41.178Z,23.40
2022-11-22T16:25:50.457Z,24.60
2022-11-22T16:27:57.377Z,24.15
2022-11-22T16:30:04.099Z,28.45
2022-11-22T16:32:15.327Z,28.23
2022-11-22T16:34:21.995Z,24.42
2022-11-22T16:36:35.073Z,24.95
2022-11-22T16:38:41.940Z,22.55
2022-11-22T16:40:49.042Z,23.60
2022-11-22T16:42:56.354Z,23.58
2022-11-22T16:45:04.622Z,24.27
2022-11-22T16:47:16.780Z,22.20
2022-11-22T16:49:25.014Z,26.33
2022-11-22T16:51:34.090Z,22.90
2022-11-22T16:53:46.336Z,32.40
2022-11-22T16:55:55.968Z,25.30
2022-11-22T16:58:02.490Z,27.98
2022-11-22T17:00:10.302Z,27.65
2022-11-22T17:02:17.970Z,29.45
2022-11-22T17:04:26.293Z,25.50
2022-11-22T17:06:35.414Z,25.92
2022-11-22T17:08:42.151Z,26.85
2022-11-22T17:10:50.534Z,28.17
2022-11-22T17:12:57.151Z,25.95
2022-11-22T17:15:03.895Z,25.45
2022-11-22T17:17:11.649Z,26.48
2022-11-22T17:21:48.059Z,24.63
2022-11-22T17:23:55.228Z,28.50
2022-11-22T17:26:02.001Z,28.92
2022-11-22T17:28:08.639Z,28.02
2022-11-22T17:30:16.754Z,27.50
2022-11-22T17:32:23.463Z,26.08
2022-11-22T17:34:30.673Z,30.42
2022-11-22T17:36:38.952Z,29.23
2022-11-22T17:38:47.608Z,27.00
2022-11-22T17:41:02.532Z,26.30
2022-11-22T17:43:09.459Z,26.95
2022-11-22T17:45:16.178Z,29.17
2022-11-22T17:47:24.588Z,28.80
2022-11-22T17:49:31.693Z,28.25
2022-11-22T17:51:39.004Z,24.35
2022-11-22T17:53:47.470Z,26.50
2022-11-22T17:56:12.684Z,24.08
2022-11-22T17:58:19.339Z,25.77
2022-11-22T18:00:30.105Z,26.90
2022-11-22T18:02:37.637Z,22.80
2022-11-22T18:04:45.542Z,27.95
2022-11-22T18:06:52.264Z,26.20
2022-11-22T18:09:01.906Z,25.50
2022-11-22T18:11:09.445Z,25.27
2022-11-22T18:13:23.589Z,25.40
2022-11-22T18:15:30.311Z,22.70
2022-11-22T18:17:37.901Z,22.23
2022-11-22T18:19:44.774Z,24.67
2022-11-22T18:21:51.855Z,23.90
2022-11-22T18:24:00.624Z,22.70
2022-11-22T18:26:41.366Z,22.48
2022-11-22T18:28:38.793Z,25.00
2022-11-22T18:30:46.591Z,26.48
2022-11-22T18:32:53.772Z,25.75
2022-11-22T18:35:00.441Z,24.20
2022-11-22T18:37:08.034Z,24.70
2022-11-22T18:39:16.547Z,23.67
2022-11-22T18:41:24.242Z,29.60
2022-11-22T18:43:31.471Z,30.35
2022-11-22T18:45:40.291Z,28.60
2022-11-22T18:47:47.267Z,26.52
2022-11-22T18:49:54.553Z,27.25
2022-11-22T18:52:01.529Z,25.50
2022-11-22T18:54:09.070Z,27.35
2022-11-22T18:56:19.527Z,24.33
2022-11-22T18:58:30.789Z,24.95
2022-11-22T19:00:38.962Z,28.70
2022-11-22T19:02:46.449Z,26.98
2022-11-22T19:04:54.554Z,24.98
2022-11-22T19:07:01.835Z,23.27
2022-11-22T19:09:08.607Z,22.75
2022-11-22T19:11:17.686Z,22.27
2022-11-22T19:13:24.506Z,21.33
2022-11-22T19:15:31.536Z,18.10
2022-11-22T19:17:40.919Z,19.92
2022-11-22T19:19:48.798Z,19.98
2022-11-22T19:21:55.591Z,22.08
2022-11-22T19:24:02.674Z,18.25
2022-11-22T19:26:10.875Z,18.10
2022-11-22T19:28:19.745Z,17.67
2022-11-22T19:30:28.155Z,19.38
2022-11-22T19:32:35.237Z,21.92
2022-11-22T19:34:41.955Z,19.85
2022-11-22T19:36:49.034Z,23.20
2022-11-22T19:38:55.705Z,20.30
2022-11-22T19:41:02.886Z,17.48
2022-11-22T19:43:14.993Z,20.77
2022-11-22T19:45:25.239Z,20.50
2022-11-22T19:47:32.060Z,20.73
2022-11-22T19:49:39.047Z,20.85
2022-11-22T19:51:46.737Z,17.02
2022-11-22T19:53:56.472Z,16.95
2022-11-22T19:56:07.802Z,19.25
2022-11-22T19:58:15.033Z,19.57
2022-11-22T20:00:24.264Z,17.48
2022-11-22T20:02:31.240Z,19.17
2022-11-22T20:04:38.627Z,15.82
2022-11-22T20:06:49.953Z,18.73
2022-11-22T20:09:02.871Z,15.98
2022-11-22T20:11:11.077Z,16.48
2022-11-22T20:13:18.208Z,15.48
2022-11-22T20:15:26.770Z,20.38
2022-11-22T20:17:34.110Z,18.58
2022-11-22T20:19:41.034Z,15.50
2022-11-22T20:21:50.518Z,18.67
2022-11-22T20:23:57.957Z,18.98
2022-11-22T20:26:05.956Z,18.60
2022-11-22T20:28:13.037Z,16.95
2022-11-22T20:30:20.887Z,17.00
2022-11-22T20:32:29.398Z,17.00
2022-11-22T20:34:36.529Z,17.30
2022-11-22T20:36:43.862Z,16.23
2022-11-22T20:38:51.610Z,18.95
2022-11-22T20:41:00.377Z,18.58
2022-11-22T20:43:07.251Z,21.60
2022-11-22T20:45:14.636Z,18.02
2022-11-22T20:47:21.563Z,17.33
2022-11-22T20:49:31.818Z,17.92
2022-11-22T20:51:40.688Z,17.85
2022-11-22T20:53:48.125Z,19.08
2022-11-22T20:55:55.830Z,18.33
2022-11-22T20:58:04.024Z,19.02
2022-11-22T21:00:12.450Z,17.77
2022-11-22T21:02:19.871Z,17.63
2022-11-22T21:04:29.207Z,16.35
2022-11-22T21:06:38.264Z,18.15
2022-11-22T21:08:46.806Z,16.73
2022-11-22T21:10:53.923Z,18.88
2022-11-22T21:13:01.156Z,16.73
2022-11-22T21:15:09.006Z,18.92
2022-11-22T21:17:37.579Z,19.48
2022-11-22T21:19:45.076Z,16.20
2022-11-22T21:21:51.899Z,15.57
2022-11-22T21:24:00.875Z,17.60
2022-11-22T21:26:08.772Z,17.67
2022-11-22T21:28:15.850Z,18.60
2022-11-22T21:30:23.646Z,17.85
2022-11-22T21:32:30.826Z,18.90
2022-11-22T21:34:37.549Z,17.55
2022-11-22T21:36:46.317Z,17.88
2022-11-22T21:38:53.293Z,23.90
2022-11-22T21:41:31.752Z,20.52
2022-11-22T21:43:30.953Z,23.23
2022-11-22T21:45:38.296Z,26.63
2022-11-22T21:47:45.111Z,23.33
2022-11-22T21:49:52.294Z,22.30
2022-11-22T21:52:01.063Z,20.77
2022-11-22T21:54:08.501Z,19.98
2022-11-22T21:56:15.323Z,20.30
2022-11-22T21:58:23.325Z,20.85
2022-11-22T22:00:30.199Z,19.85
2022-11-22T22:02:37.380Z,18.83
2022-11-22T22:04:44.049Z,16.95
2022-11-22T22:06:51.078Z,18.92
2022-11-22T22:08:59.846Z,19.08
2022-11-22T22:11:07.187Z,17.15
2022-11-22T22:13:14.004Z,19.55
2022-11-22T22:15:21.443Z,17.77
2022-11-22T22:17:28.213Z,20.30
2022-11-22T22:19:35.704Z,20.85
2022-11-22T22:21:42.374Z,19.85
2022-11-22T22:23:49.759Z,18.88
2022-11-22T22:26:01.907Z,21.15
2022-11-22T22:28:09.347Z,20.48
2022-11-22T22:30:17.808Z,19.55
2022-11-22T22:32:26.575Z,21.63
2022-11-22T22:34:33.501Z,20.52
2022-11-22T22:36:40.581Z,17.65
2022-11-22T22:38:47.455Z,21.88
2022-11-22T22:40:59.608Z,21.40
2022-11-22T22:43:06.581Z,20.58
2022-11-22T22:45:14.478Z,20.20
2022-11-22T22:47:21.405Z,16.75
2022-11-22T22:49:28.772Z,16.48
2022-11-22T22:51:35.973Z,17.80
2022-11-22T22:53:43.052Z,18.50
2022-11-22T22:55:58.732Z,17.88
2022-11-22T22:58:06.015Z,20.42
2022-11-22T23:00:14.024Z,17.65
2022-11-22T23:02:21.352Z,17.60
2022-11-22T23:04:28.585Z,20.80
2022-11-22T23:06:38.442Z,22.85
2022-11-22T23:08:48.938Z,20.20
2022-11-22T23:10:57.400Z,19.85
2022-11-22T23:13:04.274Z,18.75
2022-11-22T23:15:11.660Z,19.75
2022-11-22T23:17:18.759Z,21.25
2022-11-22T23:19:25.720Z,18.05
2022-11-22T23:21:32.746Z,17.83
2022-11-22T23:23:39.567Z,20.33
2022-11-22T23:25:46.545Z,20.40
2022-11-22T23:27:54.955Z,18.10
2022-11-22T23:30:01.937Z,18.17
2022-11-22T23:32:09.064Z,17.75
2022-11-22T23:34:16.197Z,17.05
2022-11-22T23:36:24.961Z,18.85
2022-11-22T23:38:31.682Z,20.70
2022-11-22T23:40:38.712Z,17.20
2022-11-22T23:42:46.200Z,22.48
2022-11-22T23:44:54.866Z,17.98
2022-11-22T23:47:01.893Z,20.10
2022-11-22T23:49:09.178Z,19.50
2022-11-22T23:51:16.727Z,20.33
2022-11-22T23:53:23.797Z,18.27
2022-11-22T23:55:30.568Z,19.15
2022-11-22T23:57:37.753Z,21.42
2022-11-22T23:59:44.523Z,22.60
